Knightsen, California
Current Conditions -  °F | °C
As of 4:53 PM on Friday 24 Oct 2014 (Local Time) from KLVK Reporting Station
Clear Clear  
Wind Chill: 71°   Ceiling: Unl
Heat Index: 71°   Visibility: 10mi
Dew Point: 55°   Wind: 15mph
Humidity: 57%   Direction: 290°WNW
Pressure: 29.87"   Gusts: NA
Location:  37.97°N, 121.67°W
Report Text: KLVK 242353Z 29013KT 10SM CLR 22/13 A2987 RMK AO2 SLP113 T02170128 10267 20189 55003
Loading
Personal Weather Stations






























Interactive Weather Map
Tropical Storm Tracking
New forecast layout! Learn more

10-Day Weather Forecast

Advertisements
Track Severe Weather on mobile